sensor_id;sensor_type;location;lat;lon;timestamp;pressure;altitude;pressure_sealevel;temperature;humidity
46534;BME280;32260;52.008;4.752;2022-08-25T00:01:34;101773.03;;;25.38;63.54
46534;BME280;32260;52.008;4.752;2022-08-25T00:04:03;101777.75;;;25.34;63.50
46534;BME280;32260;52.008;4.752;2022-08-25T00:06:33;101775.16;;;25.33;63.36
46534;BME280;32260;52.008;4.752;2022-08-25T00:08:59;101771.88;;;25.28;63.23
46534;BME280;32260;52.008;4.752;2022-08-25T00:11:28;101769.47;;;25.23;63.71
46534;BME280;32260;52.008;4.752;2022-08-25T00:14:02;101765.13;;;25.20;63.43
46534;BME280;32260;52.008;4.752;2022-08-25T00:16:29;101769.22;;;25.13;63.59
46534;BME280;32260;52.008;4.752;2022-08-25T00:19:00;101764.03;;;25.10;63.81
46534;BME280;32260;52.008;4.752;2022-08-25T00:21:28;101767.94;;;25.06;64.16
46534;BME280;32260;52.008;4.752;2022-08-25T00:23:56;101768.13;;;25.03;64.08
46534;BME280;32260;52.008;4.752;2022-08-25T00:26:23;101766.38;;;25.02;64.22
46534;BME280;32260;52.008;4.752;2022-08-25T00:28:51;101758.56;;;24.97;64.29
46534;BME280;32260;52.008;4.752;2022-08-25T00:31:19;101763.22;;;24.95;64.34
46534;BME280;32260;52.008;4.752;2022-08-25T00:33:48;101767.09;;;24.91;64.34
46534;BME280;32260;52.008;4.752;2022-08-25T00:36:15;101761.75;;;24.90;64.45
46534;BME280;32260;52.008;4.752;2022-08-25T00:38:43;101763.72;;;24.87;64.50
46534;BME280;32260;52.008;4.752;2022-08-25T00:41:13;101762.09;;;24.85;64.56
46534;BME280;32260;52.008;4.752;2022-08-25T00:46:22;101758.72;;;24.81;64.58
46534;BME280;32260;52.008;4.752;2022-08-25T00:48:55;101753.28;;;24.81;64.31
46534;BME280;32260;52.008;4.752;2022-08-25T00:51:36;101750.75;;;24.78;64.42
46534;BME280;32260;52.008;4.752;2022-08-25T00:54:05;101752.81;;;24.75;64.46
46534;BME280;32260;52.008;4.752;2022-08-25T00:56:32;101754.84;;;24.71;64.40
46534;BME280;32260;52.008;4.752;2022-08-25T00:58:59;101753.22;;;24.68;64.39
46534;BME280;32260;52.008;4.752;2022-08-25T01:01:27;101745.19;;;24.67;64.78
46534;BME280;32260;52.008;4.752;2022-08-25T01:03:55;101736.28;;;24.65;64.92
46534;BME280;32260;52.008;4.752;2022-08-25T01:06:21;101742.66;;;24.64;64.65
46534;BME280;32260;52.008;4.752;2022-08-25T01:08:49;101750.78;;;24.64;64.86
46534;BME280;32260;52.008;4.752;2022-08-25T01:11:16;101736.56;;;24.60;64.42
46534;BME280;32260;52.008;4.752;2022-08-25T01:16:18;101742.09;;;24.59;65.03
46534;BME280;32260;52.008;4.752;2022-08-25T01:18:48;101733.06;;;24.58;65.17
46534;BME280;32260;52.008;4.752;2022-08-25T01:21:15;101733.28;;;24.55;64.66
46534;BME280;32260;52.008;4.752;2022-08-25T01:23:43;101733.38;;;24.53;65.08
46534;BME280;32260;52.008;4.752;2022-08-25T01:26:14;101736.84;;;24.55;64.52
46534;BME280;32260;52.008;4.752;2022-08-25T01:28:43;101739.00;;;24.50;64.92
46534;BME280;32260;52.008;4.752;2022-08-25T01:31:34;101741.81;;;24.49;64.86
46534;BME280;32260;52.008;4.752;2022-08-25T01:34:01;101737.47;;;24.46;64.87
46534;BME280;32260;52.008;4.752;2022-08-25T01:36:28;101738.44;;;24.45;65.15
46534;BME280;32260;52.008;4.752;2022-08-25T01:38:58;101739.41;;;24.44;65.52
46534;BME280;32260;52.008;4.752;2022-08-25T01:44:17;101735.25;;;24.38;65.32
46534;BME280;32260;52.008;4.752;2022-08-25T01:46:44;101732.75;;;24.35;65.10
46534;BME280;32260;52.008;4.752;2022-08-25T01:49:10;101731.84;;;24.35;64.86
46534;BME280;32260;52.008;4.752;2022-08-25T01:51:47;101729.34;;;24.32;64.89
46534;BME280;32260;52.008;4.752;2022-08-25T01:54:16;101733.25;;;24.28;65.10
46534;BME280;32260;52.008;4.752;2022-08-25T01:56:42;101724.34;;;24.26;65.16
46534;BME280;32260;52.008;4.752;2022-08-25T01:59:09;101724.53;;;24.22;65.24
46534;BME280;32260;52.008;4.752;2022-08-25T02:01:35;101718.34;;;24.20;64.99
46534;BME280;32260;52.008;4.752;2022-08-25T02:04:01;101714.09;;;24.16;65.42
46534;BME280;32260;52.008;4.752;2022-08-25T02:06:31;101725.78;;;24.17;65.26
46534;BME280;32260;52.008;4.752;2022-08-25T02:09:01;101718.06;;;24.11;65.30
46534;BME280;32260;52.008;4.752;2022-08-25T02:11:30;101720.09;;;24.07;65.23
46534;BME280;32260;52.008;4.752;2022-08-25T02:13:57;101721.25;;;24.03;65.27
46534;BME280;32260;52.008;4.752;2022-08-25T02:16:28;101724.06;;;24.01;65.19
46534;BME280;32260;52.008;4.752;2022-08-25T02:18:56;101720.69;;;23.98;65.25
46534;BME280;32260;52.008;4.752;2022-08-25T02:21:24;101708.28;;;23.94;65.40
46534;BME280;32260;52.008;4.752;2022-08-25T02:23:50;101706.63;;;23.91;65.67
46534;BME280;32260;52.008;4.752;2022-08-25T02:26:18;101708.47;;;23.90;65.07
46534;BME280;32260;52.008;4.752;2022-08-25T02:28:46;101705.94;;;23.87;65.45
46534;BME280;32260;52.008;4.752;2022-08-25T02:31:13;101713.31;;;23.85;65.28
46534;BME280;32260;52.008;4.752;2022-08-25T02:33:40;101705.34;;;23.82;65.32
46534;BME280;32260;52.008;4.752;2022-08-25T02:36:07;101710.09;;;23.79;65.15
46534;BME280;32260;52.008;4.752;2022-08-25T02:38:34;101710.28;;;23.75;65.50
46534;BME280;32260;52.008;4.752;2022-08-25T02:41:06;101706.91;;;23.72;65.23
46534;BME280;32260;52.008;4.752;2022-08-25T02:43:34;101698.97;;;23.69;65.30
46534;BME280;32260;52.008;4.752;2022-08-25T02:46:00;101691.84;;;23.68;65.30
46534;BME280;32260;52.008;4.752;2022-08-25T02:48:26;101690.19;;;23.65;65.42
46534;BME280;32260;52.008;4.752;2022-08-25T02:50:53;101692.22;;;23.62;65.32
46534;BME280;32260;52.008;4.752;2022-08-25T02:53:20;101689.69;;;23.58;65.15
46534;BME280;32260;52.008;4.752;2022-08-25T02:55:46;101680.03;;;23.54;65.13
46534;BME280;32260;52.008;4.752;2022-08-25T02:58:14;101677.50;;;23.51;65.39
46534;BME280;32260;52.008;4.752;2022-08-25T03:00:40;101680.41;;;23.48;65.48
46534;BME280;32260;52.008;4.752;2022-08-25T03:03:06;101677.97;;;23.43;65.42
46534;BME280;32260;52.008;4.752;2022-08-25T03:05:32;101679.94;;;23.41;65.38
46534;BME280;32260;52.008;4.752;2022-08-25T03:07:59;101675.53;;;23.39;65.43
46534;BME280;32260;52.008;4.752;2022-08-25T03:10:25;101678.56;;;23.34;65.38
46534;BME280;32260;52.008;4.752;2022-08-25T03:12:51;101675.91;;;23.33;65.41
46534;BME280;32260;52.008;4.752;2022-08-25T03:15:17;101670.72;;;23.30;65.51
46534;BME280;32260;52.008;4.752;2022-08-25T03:17:45;101661.91;;;23.26;65.28
46534;BME280;32260;52.008;4.752;2022-08-25T03:20:12;101667.41;;;23.24;65.56
46534;BME280;32260;52.008;4.752;2022-08-25T03:22:38;101663.94;;;23.22;65.32
46534;BME280;32260;52.008;4.752;2022-08-25T03:25:05;101658.72;;;23.19;65.33
46534;BME280;32260;52.008;4.752;2022-08-25T03:27:51;101662.38;;;23.18;65.17
46534;BME280;32260;52.008;4.752;2022-08-25T03:30:18;101659.81;;;23.15;65.25
46534;BME280;32260;52.008;4.752;2022-08-25T03:32:45;101655.56;;;23.11;65.28
46534;BME280;32260;52.008;4.752;2022-08-25T03:35:12;101651.22;;;23.08;65.24
46534;BME280;32260;52.008;4.752;2022-08-25T03:37:39;101648.72;;;23.05;65.21
46534;BME280;32260;52.008;4.752;2022-08-25T03:40:08;101651.59;;;23.02;65.26
46534;BME280;32260;52.008;4.752;2022-08-25T03:42:39;101642.69;;;23.00;65.27
46534;BME280;32260;52.008;4.752;2022-08-25T03:45:05;101649.16;;;22.98;65.06
46534;BME280;32260;52.008;4.752;2022-08-25T03:47:33;101639.41;;;22.95;65.23
46534;BME280;32260;52.008;4.752;2022-08-25T03:49:59;101637.75;;;22.92;65.30
46534;BME280;32260;52.008;4.752;2022-08-25T03:52:25;101634.28;;;22.90;65.12
46534;BME280;32260;52.008;4.752;2022-08-25T03:54:51;101634.47;;;22.87;65.12
46534;BME280;32260;52.008;4.752;2022-08-25T03:57:17;101629.25;;;22.84;65.02
46534;BME280;32260;52.008;4.752;2022-08-25T03:59:45;101625.88;;;22.81;65.28
46534;BME280;32260;52.008;4.752;2022-08-25T04:02:11;101622.38;;;22.78;65.17
46534;BME280;32260;52.008;4.752;2022-08-25T04:04:37;101629.78;;;22.75;64.83
46534;BME280;32260;52.008;4.752;2022-08-25T04:07:04;101630.72;;;22.74;64.94
46534;BME280;32260;52.008;4.752;2022-08-25T04:09:31;101625.53;;;22.71;64.98
46534;BME280;32260;52.008;4.752;2022-08-25T04:11:57;101627.44;;;22.69;64.89
46534;BME280;32260;52.008;4.752;2022-08-25T04:14:23;101620.50;;;22.65;64.79
46534;BME280;32260;52.008;4.752;2022-08-25T04:16:50;101619.69;;;22.62;64.83
46534;BME280;32260;52.008;4.752;2022-08-25T04:19:17;101618.06;;;22.60;64.76
46534;BME280;32260;52.008;4.752;2022-08-25T04:21:44;101615.44;;;22.58;64.70
46534;BME280;32260;52.008;4.752;2022-08-25T04:24:11;101621.81;;;22.57;64.69
46534;BME280;32260;52.008;4.752;2022-08-25T04:26:43;101617.34;;;22.56;64.65
46534;BME280;32260;52.008;4.752;2022-08-25T04:29:10;101614.06;;;22.51;64.56
46534;BME280;32260;52.008;4.752;2022-08-25T04:31:40;101610.50;;;22.51;64.48
46534;BME280;32260;52.008;4.752;2022-08-25T04:34:07;101614.41;;;22.45;64.38
46534;BME280;32260;52.008;4.752;2022-08-25T04:36:34;101605.53;;;22.43;64.40
46534;BME280;32260;52.008;4.752;2022-08-25T04:39:01;101614.75;;;22.39;64.44
46534;BME280;32260;52.008;4.752;2022-08-25T04:41:27;101612.16;;;22.37;64.36
46534;BME280;32260;52.008;4.752;2022-08-25T04:43:57;101615.88;;;22.35;64.40
46534;BME280;32260;52.008;4.752;2022-08-25T04:46:26;101615.09;;;22.33;64.35
46534;BME280;32260;52.008;4.752;2022-08-25T04:48:54;101614.28;;;22.30;64.40
46534;BME280;32260;52.008;4.752;2022-08-25T04:51:27;101605.53;;;22.27;64.39
46534;BME280;32260;52.008;4.752;2022-08-25T04:53:57;101606.47;;;22.26;64.27
46534;BME280;32260;52.008;4.752;2022-08-25T04:56:23;101613.69;;;22.25;64.37
46534;BME280;32260;52.008;4.752;2022-08-25T04:58:50;101611.09;;;22.24;64.37
46534;BME280;32260;52.008;4.752;2022-08-25T05:01:19;101617.44;;;22.23;64.48
46534;BME280;32260;52.008;4.752;2022-08-25T05:03:47;101619.28;;;22.22;64.25
46534;BME280;32260;52.008;4.752;2022-08-25T05:06:16;101625.63;;;22.21;64.34
46534;BME280;32260;52.008;4.752;2022-08-25T05:08:43;101621.19;;;22.20;64.25
46534;BME280;32260;52.008;4.752;2022-08-25T05:11:11;101619.28;;;22.22;64.28
46534;BME280;32260;52.008;4.752;2022-08-25T05:13:40;101628.31;;;22.21;64.37
46534;BME280;32260;52.008;4.752;2022-08-25T05:16:06;101620.13;;;22.23;64.30
46534;BME280;32260;52.008;4.752;2022-08-25T05:18:33;101628.16;;;22.24;64.33
46534;BME280;32260;52.008;4.752;2022-08-25T05:21:03;101625.38;;;22.26;64.40
46534;BME280;32260;52.008;4.752;2022-08-25T05:23:29;101626.25;;;22.26;64.13
46534;BME280;32260;52.008;4.752;2022-08-25T05:26:02;101625.19;;;22.29;64.01
46534;BME280;32260;52.008;4.752;2022-08-25T05:28:29;101633.38;;;22.27;63.96
46534;BME280;32260;52.008;4.752;2022-08-25T05:30:58;101636.88;;;22.29;63.96
46534;BME280;32260;52.008;4.752;2022-08-25T05:33:25;101636.78;;;22.31;63.83
46534;BME280;32260;52.008;4.752;2022-08-25T05:35:54;101634.78;;;22.35;63.65
46534;BME280;32260;52.008;4.752;2022-08-25T05:38:20;101634.63;;;22.38;63.67
46534;BME280;32260;52.008;4.752;2022-08-25T05:40:47;101635.31;;;22.41;63.55
46534;BME280;32260;52.008;4.752;2022-08-25T05:43:13;101637.84;;;22.44;63.36
46534;BME280;32260;52.008;4.752;2022-08-25T05:45:41;101640.28;;;22.49;63.30
46534;BME280;32260;52.008;4.752;2022-08-25T05:48:07;101639.22;;;22.52;63.35
46534;BME280;32260;52.008;4.752;2022-08-25T05:50:33;101637.06;;;22.58;63.42
46534;BME280;32260;52.008;4.752;2022-08-25T05:52:59;101636.69;;;22.65;63.18
46534;BME280;32260;52.008;4.752;2022-08-25T05:55:28;101643.47;;;22.72;62.61
46534;BME280;32260;52.008;4.752;2022-08-25T05:57:54;101646.41;;;22.83;62.49
46534;BME280;32260;52.008;4.752;2022-08-25T06:00:21;101647.59;;;22.93;62.30
46534;BME280;32260;52.008;4.752;2022-08-25T06:02:47;101643.38;;;23.04;62.04
46534;BME280;32260;52.008;4.752;2022-08-25T06:11:28;101631.81;;;23.47;60.91
46534;BME280;32260;52.008;4.752;2022-08-25T06:14:03;101632.88;;;23.58;60.21
46534;BME280;32260;52.008;4.752;2022-08-25T06:16:56;101637.13;;;23.77;60.41
46534;BME280;32260;52.008;4.752;2022-08-25T06:20:03;101636.63;;;23.85;59.92
46534;BME280;32260;52.008;4.752;2022-08-25T06:23:03;101633.25;;;23.81;59.27
46534;BME280;32260;52.008;4.752;2022-08-25T06:25:38;101635.00;;;23.82;59.11
46534;BME280;32260;52.008;4.752;2022-08-25T06:28:07;101624.19;;;23.82;59.68
46534;BME280;32260;52.008;4.752;2022-08-25T06:30:45;101629.19;;;23.88;58.92
46534;BME280;32260;52.008;4.752;2022-08-25T06:33:32;101623.09;;;23.85;58.13
46534;BME280;32260;52.008;4.752;2022-08-25T06:36:01;101622.25;;;23.84;59.19
46534;BME280;32260;52.008;4.752;2022-08-25T06:39:27;101626.69;;;23.85;58.96
46534;BME280;32260;52.008;4.752;2022-08-25T06:41:45;101622.25;;;23.84;59.12
46534;BME280;32260;52.008;4.752;2022-08-25T06:45:53;101629.59;;;23.82;58.55
46534;BME280;32260;52.008;4.752;2022-08-25T06:48:24;101630.56;;;23.81;59.02
46534;BME280;32260;52.008;4.752;2022-08-25T06:52:09;101633.25;;;23.81;58.41
46534;BME280;32260;52.008;4.752;2022-08-25T06:55:07;101636.56;;;23.86;58.61
46534;BME280;32260;52.008;4.752;2022-08-25T07:01:34;101635.59;;;24.02;58.25
46534;BME280;32260;52.008;4.752;2022-08-25T07:05:03;101643.72;;;24.16;57.32
46534;BME280;32260;52.008;4.752;2022-08-25T07:08:33;101632.16;;;24.27;57.15
46534;BME280;32260;52.008;4.752;2022-08-25T07:11:32;101632.28;;;24.26;56.99
46534;BME280;32260;52.008;4.752;2022-08-25T07:14:00;101631.88;;;24.32;57.18
46534;BME280;32260;52.008;4.752;2022-08-25T07:16:27;101629.72;;;24.37;56.88
46534;BME280;32260;52.008;4.752;2022-08-25T07:18:54;101625.63;;;24.44;56.77
46534;BME280;32260;52.008;4.752;2022-08-25T07:21:22;101630.75;;;24.49;56.04
46534;BME280;32260;52.008;4.752;2022-08-25T07:23:48;101631.22;;;24.55;55.89
46534;BME280;32260;52.008;4.752;2022-08-25T07:26:17;101631.88;;;24.59;55.58
46534;BME280;32260;52.008;4.752;2022-08-25T07:28:44;101633.78;;;24.71;56.01
46534;BME280;32260;52.008;4.752;2022-08-25T07:31:11;101625.91;;;24.81;54.88
46534;BME280;32260;52.008;4.752;2022-08-25T07:33:38;101619.84;;;24.91;54.94
46534;BME280;32260;52.008;4.752;2022-08-25T07:36:24;101617.19;;;25.03;54.77
46534;BME280;32260;52.008;4.752;2022-08-25T07:38:50;101614.59;;;25.15;54.67
46534;BME280;32260;52.008;4.752;2022-08-25T07:41:16;101616.53;;;25.26;54.70
46534;BME280;32260;52.008;4.752;2022-08-25T07:43:44;101617.63;;;25.36;54.12
46534;BME280;32260;52.008;4.752;2022-08-25T07:46:10;101609.72;;;25.46;53.83
46534;BME280;32260;52.008;4.752;2022-08-25T07:48:36;101610.69;;;25.58;54.21
46534;BME280;32260;52.008;4.752;2022-08-25T07:51:08;101617.72;;;25.73;54.14
46534;BME280;32260;52.008;4.752;2022-08-25T07:53:35;101618.16;;;25.80;53.83
46534;BME280;32260;52.008;4.752;2022-08-25T07:56:01;101617.59;;;25.88;52.77
46534;BME280;32260;52.008;4.752;2022-08-25T07:58:28;101621.28;;;25.99;53.69
46534;BME280;32260;52.008;4.752;2022-08-25T08:00:54;101628.91;;;26.07;53.16
46534;BME280;32260;52.008;4.752;2022-08-25T08:03:20;101625.59;;;26.15;51.29
46534;BME280;32260;52.008;4.752;2022-08-25T08:05:47;101629.78;;;26.32;52.47
46534;BME280;32260;52.008;4.752;2022-08-25T08:08:13;101624.41;;;26.43;53.02
46534;BME280;32260;52.008;4.752;2022-08-25T08:10:40;101620.16;;;26.52;51.42
46534;BME280;32260;52.008;4.752;2022-08-25T08:13:08;101622.91;;;26.63;51.05
46534;BME280;32260;52.008;4.752;2022-08-25T08:15:35;101619.47;;;26.73;50.50
46534;BME280;32260;52.008;4.752;2022-08-25T08:18:02;101621.19;;;26.87;51.77
46534;BME280;32260;52.008;4.752;2022-08-25T08:20:28;101620.47;;;26.96;51.27
46534;BME280;32260;52.008;4.752;2022-08-25T08:22:57;101616.78;;;27.08;51.42
46534;BME280;32260;52.008;4.752;2022-08-25T08:25:23;101614.94;;;27.20;51.22
46534;BME280;32260;52.008;4.752;2022-08-25T08:27:49;101617.72;;;27.32;50.24
46534;BME280;32260;52.008;4.752;2022-08-25T08:30:15;101610.72;;;27.40;49.29
46534;BME280;32260;52.008;4.752;2022-08-25T08:32:42;101604.28;;;27.53;50.25
46534;BME280;32260;52.008;4.752;2022-08-25T08:35:08;101613.94;;;27.68;50.05
46534;BME280;32260;52.008;4.752;2022-08-25T08:37:35;101608.22;;;27.71;48.04
46534;BME280;32260;52.008;4.752;2022-08-25T08:40:06;101614.16;;;27.88;49.02
46534;BME280;32260;52.008;4.752;2022-08-25T08:42:49;101612.91;;;28.03;46.81
46534;BME280;32260;52.008;4.752;2022-08-25T08:45:26;101622.81;;;28.16;48.72
46534;BME280;32260;52.008;4.752;2022-08-25T08:51:00;101610.34;;;28.46;46.46
46534;BME280;32260;52.008;4.752;2022-08-25T08:56:31;101618.69;;;28.65;47.40
46534;BME280;32260;52.008;4.752;2022-08-25T08:59:05;101614.97;;;28.78;45.76
46534;BME280;32260;52.008;4.752;2022-08-25T09:07:11;101612.09;;;29.21;46.96
46534;BME280;32260;52.008;4.752;2022-08-25T09:09:40;101608.72;;;29.29;45.40
46534;BME280;32260;52.008;4.752;2022-08-25T09:12:36;101607.69;;;29.51;46.31
46534;BME280;32260;52.008;4.752;2022-08-25T09:15:17;101595.50;;;29.56;45.64
46534;BME280;32260;52.008;4.752;2022-08-25T09:18:07;101596.88;;;29.71;43.00
46534;BME280;32260;52.008;4.752;2022-08-25T09:26:38;101604.31;;;30.00;43.99
46534;BME280;32260;52.008;4.752;2022-08-25T09:29:11;101599.13;;;30.07;43.70
46534;BME280;32260;52.008;4.752;2022-08-25T09:31:40;101606.22;;;30.19;42.87
46534;BME280;32260;52.008;4.752;2022-08-25T09:34:12;101604.22;;;30.31;42.82
46534;BME280;32260;52.008;4.752;2022-08-25T09:36:38;101595.00;;;30.42;41.48
46534;BME280;32260;52.008;4.752;2022-08-25T09:39:06;101591.59;;;30.59;42.99
46534;BME280;32260;52.008;4.752;2022-08-25T09:44:41;101584.94;;;30.91;39.66
46534;BME280;32260;52.008;4.752;2022-08-25T09:47:25;101583.53;;;31.07;39.77
46534;BME280;32260;52.008;4.752;2022-08-25T10:00:31;101580.91;;;31.15;37.52
46534;BME280;32260;52.008;4.752;2022-08-25T10:03:05;101567.34;;;31.23;38.85
46534;BME280;32260;52.008;4.752;2022-08-25T10:05:33;101572.78;;;31.33;40.21
46534;BME280;32260;52.008;4.752;2022-08-25T10:08:08;101558.03;;;31.44;40.22
46534;BME280;32260;52.008;4.752;2022-08-25T10:10:42;101564.63;;;31.51;39.22
46534;BME280;32260;52.008;4.752;2022-08-25T10:13:17;101564.75;;;31.59;39.41
46534;BME280;32260;52.008;4.752;2022-08-25T10:15:44;101562.44;;;31.65;39.35
46534;BME280;32260;52.008;4.752;2022-08-25T10:18:28;101561.63;;;31.82;39.60
46534;BME280;32260;52.008;4.752;2022-08-25T10:21:14;101557.25;;;31.89;35.48
46534;BME280;32260;52.008;4.752;2022-08-25T10:23:48;101555.69;;;32.05;37.52
46534;BME280;32260;52.008;4.752;2022-08-25T10:27:21;101548.97;;;32.17;37.56
46534;BME280;32260;52.008;4.752;2022-08-25T10:29:15;101540.88;;;32.25;38.11
46534;BME280;32260;52.008;4.752;2022-08-25T10:32:13;101534.34;;;32.45;38.10
46534;BME280;32260;52.008;4.752;2022-08-25T10:40:23;101532.06;;;32.76;37.58
46534;BME280;32260;52.008;4.752;2022-08-25T10:45:29;101528.72;;;32.90;36.42
46534;BME280;32260;52.008;4.752;2022-08-25T10:48:24;101525.41;;;33.05;33.03
46534;BME280;32260;52.008;4.752;2022-08-25T10:51:57;101521.84;;;33.13;36.28
46534;BME280;32260;52.008;4.752;2022-08-25T10:53:53;101523.94;;;33.27;36.39
46534;BME280;32260;52.008;4.752;2022-08-25T10:56:42;101515.31;;;33.48;34.28
46534;BME280;32260;52.008;4.752;2022-08-25T10:59:22;101513.66;;;33.64;35.49
46534;BME280;32260;52.008;4.752;2022-08-25T11:03:17;101511.69;;;33.82;35.45
46534;BME280;32260;52.008;4.752;2022-08-25T11:10:48;101501.41;;;34.26;32.95
46534;BME280;32260;52.008;4.752;2022-08-25T11:13:22;101500.06;;;34.38;31.75
46534;BME280;32260;52.008;4.752;2022-08-25T11:16:00;101499.75;;;34.41;33.22
46534;BME280;32260;52.008;4.752;2022-08-25T11:18:29;101500.28;;;34.45;32.24
46534;BME280;32260;52.008;4.752;2022-08-25T11:21:08;101499.03;;;34.64;31.44
46534;BME280;32260;52.008;4.752;2022-08-25T11:23:40;101500.56;;;34.75;33.20
46534;BME280;32260;52.008;4.752;2022-08-25T11:26:12;101497.81;;;34.75;30.46
46534;BME280;32260;52.008;4.752;2022-08-25T11:31:17;101489.91;;;34.88;30.43
46534;BME280;32260;52.008;4.752;2022-08-25T11:33:44;101491.97;;;34.86;29.31
46534;BME280;32260;52.008;4.752;2022-08-25T11:36:31;101492.75;;;35.11;30.33
46534;BME280;32260;52.008;4.752;2022-08-25T11:40:25;101485.50;;;35.19;29.87
46534;BME280;32260;52.008;4.752;2022-08-25T11:42:44;101477.56;;;35.24;29.42
46534;BME280;32260;52.008;4.752;2022-08-25T11:45:53;101473.59;;;35.26;30.96
46534;BME280;32260;52.008;4.752;2022-08-25T11:51:07;101472.88;;;35.33;29.04
46534;BME280;32260;52.008;4.752;2022-08-25T11:56:32;101470.94;;;35.50;28.67
46534;BME280;32260;52.008;4.752;2022-08-25T11:58:59;101466.97;;;35.52;28.76
46534;BME280;32260;52.008;4.752;2022-08-25T12:04:39;101465.19;;;35.83;29.35
46534;BME280;32260;52.008;4.752;2022-08-25T12:12:39;101463.41;;;35.98;26.65
46534;BME280;32260;52.008;4.752;2022-08-25T12:26:38;101441.31;;;36.45;26.89
46534;BME280;32260;52.008;4.752;2022-08-25T12:29:29;101454.81;;;36.39;26.65
46534;BME280;32260;52.008;4.752;2022-08-25T12:38:02;101431.72;;;36.70;27.52
46534;BME280;32260;52.008;4.752;2022-08-25T12:56:58;101430.84;;;36.85;24.56
46534;BME280;32260;52.008;4.752;2022-08-25T12:59:42;101439.16;;;37.00;26.13
46534;BME280;32260;52.008;4.752;2022-08-25T13:05:16;101430.31;;;37.04;26.18
46534;BME280;32260;52.008;4.752;2022-08-25T13:11:11;101429.47;;;37.04;25.56
46534;BME280;32260;52.008;4.752;2022-08-25T13:13:50;101431.94;;;37.14;25.01
46534;BME280;32260;52.008;4.752;2022-08-25T13:18:55;101434.38;;;37.23;24.80
46534;BME280;32260;52.008;4.752;2022-08-25T13:21:35;101428.84;;;37.38;22.90
46534;BME280;32260;52.008;4.752;2022-08-25T13:24:06;101422.72;;;37.43;25.51
46534;BME280;32260;52.008;4.752;2022-08-25T13:26:39;101418.50;;;37.47;25.32
46534;BME280;32260;52.008;4.752;2022-08-25T13:32:02;101413.06;;;37.54;24.61
46534;BME280;32260;52.008;4.752;2022-08-25T13:34:32;101412.66;;;37.57;24.74
46534;BME280;32260;52.008;4.752;2022-08-25T13:37:06;101409.84;;;37.72;24.59
46534;BME280;32260;52.008;4.752;2022-08-25T13:40:14;101410.69;;;37.87;24.14
46534;BME280;32260;52.008;4.752;2022-08-25T13:42:49;101407.72;;;37.89;24.01
46534;BME280;32260;52.008;4.752;2022-08-25T13:45:20;101411.41;;;37.96;24.65
46534;BME280;32260;52.008;4.752;2022-08-25T13:47:51;101399.91;;;37.99;22.35
46534;BME280;32260;52.008;4.752;2022-08-25T13:58:23;101400.16;;;38.04;25.11
46534;BME280;32260;52.008;4.752;2022-08-25T14:01:11;101395.06;;;38.01;24.29
46534;BME280;32260;52.008;4.752;2022-08-25T14:03:41;101391.47;;;38.08;24.50
46534;BME280;32260;52.008;4.752;2022-08-25T14:11:43;101380.00;;;38.11;24.31
46534;BME280;32260;52.008;4.752;2022-08-25T14:14:13;101388.31;;;38.11;23.70
46534;BME280;32260;52.008;4.752;2022-08-25T14:17:01;101381.81;;;38.25;24.64
46534;BME280;32260;52.008;4.752;2022-08-25T14:19:32;101388.75;;;38.36;23.72
46534;BME280;32260;52.008;4.752;2022-08-25T14:21:59;101382.41;;;38.42;24.19
46534;BME280;32260;52.008;4.752;2022-08-25T14:24:31;101383.66;;;38.40;24.35
46534;BME280;32260;52.008;4.752;2022-08-25T14:26:59;101380.84;;;38.33;25.28
46534;BME280;32260;52.008;4.752;2022-08-25T14:29:25;101378.28;;;38.31;25.45
46534;BME280;32260;52.008;4.752;2022-08-25T14:31:51;101377.69;;;38.36;27.04
46534;BME280;32260;52.008;4.752;2022-08-25T14:34:20;101375.53;;;38.38;25.46
46534;BME280;32260;52.008;4.752;2022-08-25T14:36:48;101377.03;;;38.34;26.00
46534;BME280;32260;52.008;4.752;2022-08-25T14:39:15;101377.69;;;38.36;25.68
46534;BME280;32260;52.008;4.752;2022-08-25T14:41:42;101374.19;;;38.27;26.11
46534;BME280;32260;52.008;4.752;2022-08-25T14:44:11;101371.16;;;38.22;25.89
46534;BME280;32260;52.008;4.752;2022-08-25T14:46:45;101372.47;;;38.26;26.29
46534;BME280;32260;52.008;4.752;2022-08-25T14:49:17;101370.75;;;38.25;25.68
46534;BME280;32260;52.008;4.752;2022-08-25T14:51:46;101371.34;;;38.20;25.43
46534;BME280;32260;52.008;4.752;2022-08-25T14:54:16;101366.06;;;38.26;26.33
46534;BME280;32260;52.008;4.752;2022-08-25T14:56:44;101365.56;;;38.15;26.29
46534;BME280;32260;52.008;4.752;2022-08-25T14:59:11;101372.47;;;38.26;25.94
46534;BME280;32260;52.008;4.752;2022-08-25T15:01:40;101364.69;;;38.37;26.43
46534;BME280;32260;52.008;4.752;2022-08-25T15:04:09;101365.97;;;38.41;27.33
46534;BME280;32260;52.008;4.752;2022-08-25T15:06:38;101368.56;;;38.42;26.90
46534;BME280;32260;52.008;4.752;2022-08-25T15:09:09;101366.63;;;38.43;26.85
46534;BME280;32260;52.008;4.752;2022-08-25T15:11:39;101360.44;;;38.41;26.45
46534;BME280;32260;52.008;4.752;2022-08-25T15:14:05;101368.94;;;38.32;27.45
46534;BME280;32260;52.008;4.752;2022-08-25T15:16:36;101371.31;;;38.14;26.94
46534;BME280;32260;52.008;4.752;2022-08-25T15:19:04;101368.94;;;38.11;27.05
46534;BME280;32260;52.008;4.752;2022-08-25T15:21:31;101366.31;;;37.81;26.39
46534;BME280;32260;52.008;4.752;2022-08-25T15:23:57;101367.50;;;37.50;27.85
46534;BME280;32260;52.008;4.752;2022-08-25T15:26:23;101366.63;;;37.43;28.30
46534;BME280;32260;52.008;4.752;2022-08-25T15:28:50;101369.97;;;37.38;28.47
46534;BME280;32260;52.008;4.752;2022-08-25T15:31:18;101366.19;;;37.46;29.18
46534;BME280;32260;52.008;4.752;2022-08-25T15:33:45;101365.47;;;37.37;28.52
46534;BME280;32260;52.008;4.752;2022-08-25T15:36:14;101368.94;;;37.24;29.58